Time;durP1;ratioP1;P1;durP2;ratioP2;P2;SDS_P1;SDS_P2;PMS_P1;PMS_P2;Temp;Humidity;BMP_temperature;BMP_pressure;BME280_temperature;BME280_humidity;BME280_pressure;Samples;Min_cycle;Max_cycle;Signal;HPM_P1;HPM_P2
2021/11/23 00:02:24;;;;;;;18.98;9.55;;;;;;;;;;4949307;28;20226;-76
2021/11/23 00:04:52;;;;;;;14.88;10.23;;;;;;;;;;4934397;29;20680;-75
2021/11/23 00:07:19;;;;;;;14.73;10.63;;;;;;;;;;4933092;29;20292;-75
2021/11/23 00:09:47;;;;;;;15.05;11.00;;;;;;;;;;4933681;29;20229;-76
2021/11/23 00:12:15;;;;;;;14.23;10.68;;;;;;;;;;4936080;29;20640;-75
2021/11/23 00:14:42;;;;;;;15.45;10.32;;;;;;;;;;4935840;29;20297;-75
2021/11/23 00:17:09;;;;;;;18.15;11.52;;;;;;;;;;4948895;28;20691;-76
2021/11/23 00:19:38;;;;;;;15.35;11.10;;;;;;;;;;4950670;28;20221;-75
2021/11/23 00:22:05;;;;;;;18.58;11.77;;;;;;;;;;4949774;29;20194;-75
2021/11/23 00:24:32;;;;;;;17.17;11.60;;;;;;;;;;4940017;28;20199;-76
2021/11/23 00:27:00;;;;;;;18.73;12.63;;;;;;;;;;4931854;29;20223;-75
2021/11/23 00:29:27;;;;;;;17.08;12.98;;;;;;;;;;4934883;29;20605;-76
2021/11/23 00:31:54;;;;;;;15.77;11.27;;;;;;;;;;4936844;29;20205;-75
2021/11/23 00:34:21;;;;;;;14.18;10.18;;;;;;;;;;4939207;29;20202;-75
2021/11/23 00:36:50;;;;;;;17.40;11.00;;;;;;;;;;4940560;28;20226;-76
2021/11/23 00:39:17;;;;;;;17.10;11.00;;;;;;;;;;4934442;29;20205;-76
2021/11/23 00:41:47;;;;;;;16.13;11.23;;;;;;;;;;4934429;29;20649;-76
2021/11/23 00:44:14;;;;;;;16.40;11.57;;;;;;;;;;4934862;29;20202;-76
2021/11/23 00:46:42;;;;;;;17.42;11.45;;;;;;;;;;4934232;29;20215;-76
2021/11/23 00:49:09;;;;;;;17.63;10.95;;;;;;;;;;4932216;29;20203;-75
2021/11/23 00:51:36;;;;;;;14.45;10.43;;;;;;;;;;4939195;29;20230;-75
2021/11/23 00:54:05;;;;;;;16.52;11.23;;;;;;;;;;4957441;28;20202;-76
2021/11/23 00:56:33;;;;;;;18.60;11.48;;;;;;;;;;4934793;29;20218;-76
2021/11/23 00:59:00;;;;;;;16.13;11.05;;;;;;;;;;4932804;29;20210;-75
2021/11/23 01:01:27;;;;;;;17.05;11.20;;;;;;;;;;4933808;29;20206;-75
2021/11/23 01:03:55;;;;;;;15.23;11.00;;;;;;;;;;4931750;29;20222;-75
2021/11/23 01:06:22;;;;;;;13.48;11.48;;;;;;;;;;4938517;29;20274;-75
2021/11/23 01:08:49;;;;;;;17.15;11.52;;;;;;;;;;4937091;28;20210;-75
2021/11/23 01:11:19;;;;;;;23.08;15.95;;;;;;;;;;4931930;29;20692;-75
2021/11/23 01:13:47;;;;;;;20.10;14.48;;;;;;;;;;4932172;29;20199;-75
2021/11/23 01:16:15;;;;;;;18.63;13.57;;;;;;;;;;4930593;29;20205;-76
2021/11/23 01:18:43;;;;;;;17.90;12.52;;;;;;;;;;4932506;29;20683;-75
2021/11/23 01:21:10;;;;;;;16.73;11.25;;;;;;;;;;4935564;29;20261;-76
2021/11/23 01:23:38;;;;;;;16.50;11.15;;;;;;;;;;4938914;28;20686;-74
2021/11/23 01:26:05;;;;;;;15.57;11.93;;;;;;;;;;4947407;29;20225;-77
2021/11/23 01:28:34;;;;;;;17.13;11.40;;;;;;;;;;4952935;28;20222;-75
2021/11/23 01:31:02;;;;;;;15.88;11.15;;;;;;;;;;4934018;29;20575;-77
2021/11/23 01:33:29;;;;;;;18.35;11.15;;;;;;;;;;4931817;29;20202;-76
2021/11/23 01:35:57;;;;;;;15.40;11.45;;;;;;;;;;4932575;29;20234;-77
2021/11/23 01:38:24;;;;;;;15.55;10.95;;;;;;;;;;4938837;28;20218;-77
2021/11/23 01:40:51;;;;;;;19.73;11.63;;;;;;;;;;4936986;28;20424;-77
2021/11/23 01:43:18;;;;;;;14.80;11.00;;;;;;;;;;4932092;29;20198;-75
2021/11/23 01:45:47;;;;;;;17.45;11.25;;;;;;;;;;4931713;29;20195;-75
2021/11/23 01:48:14;;;;;;;19.33;12.82;;;;;;;;;;4932745;29;20225;-75
2021/11/23 01:50:41;;;;;;;19.08;12.57;;;;;;;;;;4930170;29;20223;-77
2021/11/23 01:53:09;;;;;;;16.02;12.10;;;;;;;;;;4927344;29;20205;-77
2021/11/23 01:55:37;;;;;;;19.23;12.68;;;;;;;;;;4937831;28;20213;-76
2021/11/23 01:58:06;;;;;;;17.55;12.60;;;;;;;;;;4947513;28;20230;-76
2021/11/23 02:00:33;;;;;;;15.95;12.05;;;;;;;;;;4945063;29;20194;-76
2021/11/23 02:03:02;;;;;;;14.05;11.27;;;;;;;;;;4932218;29;20206;-75
2021/11/23 02:05:29;;;;;;;16.23;11.90;;;;;;;;;;4932825;29;20205;-78
2021/11/23 02:07:56;;;;;;;15.40;11.50;;;;;;;;;;4933390;29;20699;-76
2021/11/23 02:10:24;;;;;;;18.85;11.35;;;;;;;;;;4935099;29;20230;-76
2021/11/23 02:12:52;;;;;;;15.35;11.52;;;;;;;;;;4933938;29;20731;-77
2021/11/23 02:15:19;;;;;;;16.55;12.38;;;;;;;;;;4935436;29;20224;-75
2021/11/23 02:17:47;;;;;;;16.48;12.18;;;;;;;;;;4938573;28;20228;-75
2021/11/23 02:20:17;;;;;;;16.63;12.25;;;;;;;;;;4947707;28;20213;-74
2021/11/23 02:22:44;;;;;;;16.13;12.02;;;;;;;;;;4951428;28;20678;-75
2021/11/23 02:25:12;;;;;;;14.80;12.25;;;;;;;;;;4941528;29;20210;-76
2021/11/23 02:27:39;;;;;;;13.40;10.98;;;;;;;;;;4932583;29;20218;-76
2021/11/23 02:30:07;;;;;;;17.55;12.38;;;;;;;;;;4920432;29;20300;-75
2021/11/23 02:32:38;;;;;;;17.60;12.05;;;;;;;;;;4915692;29;20200;-76
2021/11/23 02:35:06;;;;;;;16.48;12.30;;;;;;;;;;4933570;29;20202;-75
2021/11/23 02:37:41;;;;;;;15.02;12.40;;;;;;;;;;4936580;29;20308;-75
2021/11/23 02:40:09;;;;;;;15.57;11.30;;;;;;;;;;4936603;28;20206;-76
2021/11/23 02:42:36;;;;;;;15.05;12.57;;;;;;;;;;4949841;28;20221;-76
2021/11/23 02:45:04;;;;;;;16.88;12.95;;;;;;;;;;4936195;28;20199;-74
2021/11/23 02:47:33;;;;;;;18.13;12.80;;;;;;;;;;4931201;29;20226;-76
2021/11/23 02:50:00;;;;;;;21.35;12.55;;;;;;;;;;4930500;29;20221;-74
2021/11/23 02:52:27;;;;;;;18.42;13.00;;;;;;;;;;4917600;29;20203;-75
2021/11/23 02:54:56;;;;;;;16.20;12.45;;;;;;;;;;4921704;29;20554;-76
2021/11/23 02:57:25;;;;;;;15.68;11.88;;;;;;;;;;4937767;28;20218;-77
2021/11/23 02:59:52;;;;;;;14.52;11.02;;;;;;;;;;4935411;28;20202;-75
2021/11/23 03:02:20;;;;;;;15.25;12.70;;;;;;;;;;4924746;29;20194;-75
2021/11/23 03:04:50;;;;;;;20.45;13.75;;;;;;;;;;4930909;29;20198;-75
2021/11/23 03:07:18;;;;;;;17.70;13.45;;;;;;;;;;4930048;29;20222;-75
2021/11/23 03:09:45;;;;;;;17.75;12.80;;;;;;;;;;4930427;29;20206;-76
2021/11/23 03:12:17;;;;;;;17.55;12.38;;;;;;;;;;4937436;28;20297;-76
2021/11/23 03:14:45;;;;;;;18.30;12.93;;;;;;;;;;4943643;28;20555;-74
2021/11/23 03:17:12;;;;;;;16.77;11.50;;;;;;;;;;4950751;28;20625;-77
2021/11/23 03:19:40;;;;;;;18.90;12.80;;;;;;;;;;4964568;28;20208;-74
2021/11/23 03:22:08;;;;;;;18.55;12.50;;;;;;;;;;4965203;28;20202;-76
2021/11/23 03:24:35;;;;;;;18.13;11.25;;;;;;;;;;4944808;28;20202;-75
2021/11/23 03:27:03;;;;;;;16.80;12.98;;;;;;;;;;4936090;28;20229;-75
2021/11/23 03:29:31;;;;;;;15.90;11.77;;;;;;;;;;4945697;28;20205;-75
2021/11/23 03:31:59;;;;;;;18.50;11.77;;;;;;;;;;4950237;28;20803;-74
2021/11/23 03:34:26;;;;;;;17.23;12.15;;;;;;;;;;4964047;28;20194;-76
2021/11/23 03:36:53;;;;;;;17.98;12.30;;;;;;;;;;4949477;28;20217;-76
2021/11/23 03:39:20;;;;;;;19.13;13.45;;;;;;;;;;4941976;28;20202;-75
2021/11/23 03:41:48;;;;;;;18.70;12.35;;;;;;;;;;4937738;28;20198;-76
2021/11/23 03:44:15;;;;;;;17.73;13.20;;;;;;;;;;4946043;28;20210;-75
2021/11/23 03:46:43;;;;;;;20.30;12.63;;;;;;;;;;4949229;28;20230;-75
2021/11/23 03:49:11;;;;;;;19.27;12.80;;;;;;;;;;4935483;28;20195;-76
2021/11/23 03:51:38;;;;;;;17.88;13.43;;;;;;;;;;4930945;29;20222;-75
2021/11/23 03:54:05;;;;;;;15.52;11.60;;;;;;;;;;4930634;29;20202;-75
2021/11/23 03:56:32;;;;;;;16.30;11.10;;;;;;;;;;4936721;28;20230;-76
2021/11/23 03:58:59;;;;;;;18.23;12.00;;;;;;;;;;4945112;28;20205;-76
2021/11/23 04:01:27;;;;;;;18.50;12.82;;;;;;;;;;4929185;29;20207;-75
2021/11/23 04:03:55;;;;;;;17.23;12.63;;;;;;;;;;4928002;29;20707;-75
2021/11/23 04:06:23;;;;;;;15.80;12.00;;;;;;;;;;4930934;29;20229;-76
2021/11/23 04:08:50;;;;;;;18.83;11.95;;;;;;;;;;4936665;29;20217;-76
2021/11/23 04:11:17;;;;;;;14.82;12.30;;;;;;;;;;4941757;29;20214;-75
2021/11/23 04:13:45;;;;;;;17.88;13.27;;;;;;;;;;4936077;28;20199;-76
2021/11/23 04:16:12;;;;;;;20.30;13.02;;;;;;;;;;4935251;29;20199;-74
2021/11/23 04:18:39;;;;;;;18.83;13.25;;;;;;;;;;4934992;29;20289;-75
2021/11/23 04:21:08;;;;;;;19.10;12.68;;;;;;;;;;4932855;29;20206;-74
2021/11/23 04:23:35;;;;;;;21.10;13.45;;;;;;;;;;4934334;29;20206;-75
2021/11/23 04:26:03;;;;;;;18.30;12.57;;;;;;;;;;4937027;29;20199;-75
2021/11/23 04:28:30;;;;;;;22.58;13.48;;;;;;;;;;4935315;29;20231;-76
2021/11/23 04:30:57;;;;;;;18.17;13.32;;;;;;;;;;4937194;29;20222;-75
2021/11/23 04:33:24;;;;;;;18.98;12.35;;;;;;;;;;4938097;28;20198;-74
2021/11/23 04:35:51;;;;;;;17.73;13.48;;;;;;;;;;4948292;28;20202;-76
2021/11/23 04:38:20;;;;;;;16.92;11.80;;;;;;;;;;4942351;28;20225;-76
2021/11/23 04:40:47;;;;;;;16.77;12.57;;;;;;;;;;4933122;29;20191;-78
2021/11/23 04:43:14;;;;;;;21.30;13.07;;;;;;;;;;4931462;29;20195;-76
2021/11/23 04:45:42;;;;;;;16.98;12.30;;;;;;;;;;4933249;29;20227;-76
2021/11/23 04:48:09;;;;;;;14.75;11.82;;;;;;;;;;4936685;29;20218;-76
2021/11/23 04:50:37;;;;;;;14.43;10.82;;;;;;;;;;4934991;29;20644;-76
2021/11/23 04:53:04;;;;;;;16.23;11.80;;;;;;;;;;4937573;29;20209;-76
2021/11/23 04:55:33;;;;;;;14.73;11.65;;;;;;;;;;4954425;28;20199;-75
2021/11/23 04:58:00;;;;;;;19.83;12.23;;;;;;;;;;4944984;28;20599;-75
2021/11/23 05:00:27;;;;;;;18.27;12.90;;;;;;;;;;4934114;29;20210;-76
2021/11/23 05:02:54;;;;;;;16.98;11.90;;;;;;;;;;4934558;29;20286;-75
2021/11/23 05:05:22;;;;;;;14.57;11.95;;;;;;;;;;4932268;29;20207;-76
2021/11/23 05:07:49;;;;;;;16.45;12.52;;;;;;;;;;4933245;29;20598;-76
2021/11/23 05:10:16;;;;;;;17.45;13.35;;;;;;;;;;4938193;28;20209;-75
2021/11/23 05:12:45;;;;;;;15.98;12.27;;;;;;;;;;4943503;28;20221;-76
2021/11/23 05:15:12;;;;;;;21.50;12.80;;;;;;;;;;4952153;28;20206;-77
2021/11/23 05:17:40;;;;;;;29.13;14.13;;;;;;;;;;4952318;28;20257;-75
2021/11/23 05:20:08;;;;;;;15.95;12.57;;;;;;;;;;4952679;28;20289;-75
2021/11/23 05:22:35;;;;;;;14.65;11.70;;;;;;;;;;4948189;28;20289;-76
2021/11/23 05:25:03;;;;;;;14.70;11.15;;;;;;;;;;4935906;29;20205;-76
2021/11/23 05:27:30;;;;;;;16.20;12.20;;;;;;;;;;4952493;28;20230;-76
2021/11/23 05:30:00;;;;;;;15.27;11.70;;;;;;;;;;4933320;29;20190;-76
2021/11/23 05:32:27;;;;;;;15.02;12.30;;;;;;;;;;4931806;29;20696;-75
2021/11/23 05:34:54;;;;;;;18.55;12.43;;;;;;;;;;4930849;29;20202;-74
2021/11/23 05:37:21;;;;;;;15.90;11.23;;;;;;;;;;4931613;29;20207;-76
2021/11/23 05:39:49;;;;;;;14.90;11.93;;;;;;;;;;4935894;29;20210;-76
2021/11/23 05:42:16;;;;;;;16.70;12.13;;;;;;;;;;4937651;28;20194;-75
2021/11/23 05:44:43;;;;;;;16.27;10.32;;;;;;;;;;4948579;28;20206;-74
2021/11/23 05:47:12;;;;;;;17.35;12.00;;;;;;;;;;4939941;29;20692;-75
2021/11/23 05:49:39;;;;;;;14.45;10.55;;;;;;;;;;4932365;29;20202;-75
2021/11/23 05:52:06;;;;;;;17.85;11.43;;;;;;;;;;4931623;29;20227;-75
2021/11/23 05:54:33;;;;;;;17.77;12.57;;;;;;;;;;4928604;29;20210;-76
2021/11/23 05:57:01;;;;;;;19.85;13.40;;;;;;;;;;4937333;28;21055;-76
2021/11/23 05:59:28;;;;;;;14.63;11.30;;;;;;;;;;4933525;28;20309;-74
2021/11/23 06:01:55;;;;;;;12.77;10.25;;;;;;;;;;4930772;29;20657;-77
2021/11/23 06:04:24;;;;;;;16.63;11.35;;;;;;;;;;4931978;29;20199;-76
2021/11/23 06:06:51;;;;;;;15.52;10.80;;;;;;;;;;4931692;29;20227;-75
2021/11/23 06:09:18;;;;;;;17.33;11.95;;;;;;;;;;4932003;29;20199;-77
2021/11/23 06:11:45;;;;;;;15.90;11.88;;;;;;;;;;4936582;29;21415;-75
2021/11/23 06:14:12;;;;;;;14.18;10.68;;;;;;;;;;4939275;28;20419;-75
2021/11/23 06:16:44;;;;;;;16.75;13.27;;;;;;;;;;4944687;28;20391;-76
2021/11/23 06:19:11;;;;;;;20.77;10.77;;;;;;;;;;4912408;29;20649;-75
2021/11/23 06:21:40;;;;;;;14.82;10.88;;;;;;;;;;4913503;29;20200;-76
2021/11/23 06:24:07;;;;;;;19.30;11.50;;;;;;;;;;4925672;29;20202;-76
2021/11/23 06:26:34;;;;;;;15.38;11.25;;;;;;;;;;4933260;29;20222;-75
2021/11/23 06:29:02;;;;;;;14.70;10.43;;;;;;;;;;4939985;28;20198;-76
2021/11/23 06:31:29;;;;;;;16.70;11.05;;;;;;;;;;4935772;28;20226;-76
2021/11/23 06:33:57;;;;;;;15.43;11.13;;;;;;;;;;4932558;29;20682;-76
2021/11/23 06:36:24;;;;;;;13.65;10.27;;;;;;;;;;4932410;29;20608;-77
2021/11/23 06:38:53;;;;;;;17.30;11.55;;;;;;;;;;4931757;29;20199;-76
2021/11/23 06:41:20;;;;;;;17.23;11.23;;;;;;;;;;4929059;29;20210;-76
2021/11/23 06:43:47;;;;;;;13.68;10.50;;;;;;;;;;4915977;29;20203;-75
2021/11/23 06:46:15;;;;;;;17.98;10.85;;;;;;;;;;4915862;29;20683;-74
2021/11/23 06:48:42;;;;;;;21.10;11.75;;;;;;;;;;4924038;29;20199;-75
2021/11/23 06:51:09;;;;;;;21.50;12.32;;;;;;;;;;4938494;28;20194;-77
2021/11/23 06:53:36;;;;;;;18.60;13.80;;;;;;;;;;4935656;29;20224;-76
2021/11/23 06:56:05;;;;;;;19.90;12.05;;;;;;;;;;4932028;29;20250;-77
2021/11/23 06:58:32;;;;;;;21.92;12.77;;;;;;;;;;4931842;29;20244;-76
2021/11/23 07:00:59;;;;;;;16.00;12.02;;;;;;;;;;4931802;29;20195;-76
2021/11/23 07:03:27;;;;;;;18.17;12.40;;;;;;;;;;4930621;29;20225;-76
2021/11/23 07:05:54;;;;;;;20.60;11.65;;;;;;;;;;4932019;29;20715;-76
2021/11/23 07:08:21;;;;;;;18.48;12.75;;;;;;;;;;4937075;29;20214;-75
2021/11/23 07:10:48;;;;;;;17.05;12.13;;;;;;;;;;4937198;29;20210;-73
2021/11/23 07:13:17;;;;;;;18.45;11.45;;;;;;;;;;4950425;28;20618;-75
2021/11/23 07:15:44;;;;;;;15.73;11.45;;;;;;;;;;4949749;28;20201;-76
2021/11/23 07:18:11;;;;;;;18.70;11.93;;;;;;;;;;4950047;28;20284;-75
2021/11/23 07:20:38;;;;;;;17.58;11.88;;;;;;;;;;4948779;29;20213;-75
2021/11/23 07:23:06;;;;;;;16.90;11.60;;;;;;;;;;4932149;29;20207;-74
2021/11/23 07:25:33;;;;;;;18.60;12.50;;;;;;;;;;4932988;29;20203;-76
2021/11/23 07:28:00;;;;;;;18.88;11.00;;;;;;;;;;4934036;29;20624;-74
2021/11/23 07:30:29;;;;;;;18.67;12.07;;;;;;;;;;4934976;29;20286;-76
2021/11/23 07:32:56;;;;;;;16.38;11.30;;;;;;;;;;4936378;28;20237;-75
2021/11/23 07:35:23;;;;;;;16.05;11.55;;;;;;;;;;4919448;28;20576;-74
2021/11/23 07:37:51;;;;;;;15.85;11.18;;;;;;;;;;4926210;29;20215;-75
2021/11/23 07:40:18;;;;;;;19.15;11.45;;;;;;;;;;4922700;29;20197;-75
2021/11/23 07:42:46;;;;;;;17.63;10.77;;;;;;;;;;4933461;29;20202;-77
2021/11/23 07:45:13;;;;;;;19.38;11.88;;;;;;;;;;4918748;29;20207;-75
2021/11/23 07:47:42;;;;;;;18.23;12.25;;;;;;;;;;4918151;29;20223;-75
2021/11/23 07:50:09;;;;;;;19.80;11.55;;;;;;;;;;4927858;29;20270;-75
2021/11/23 07:52:36;;;;;;;16.50;11.32;;;;;;;;;;4940738;29;20222;-75
2021/11/23 07:55:05;;;;;;;17.38;11.55;;;;;;;;;;4939957;28;20258;-74
2021/11/23 07:57:32;;;;;;;19.08;11.63;;;;;;;;;;4952627;28;20226;-74
2021/11/23 08:00:00;;;;;;;18.88;13.20;;;;;;;;;;4954474;28;20268;-76
2021/11/23 08:02:27;;;;;;;18.63;12.57;;;;;;;;;;4937174;29;20221;-76
2021/11/23 08:04:55;;;;;;;14.73;10.18;;;;;;;;;;4935242;29;20209;-74
2021/11/23 08:07:24;;;;;;;19.55;12.95;;;;;;;;;;4936100;29;20278;-74
2021/11/23 08:09:51;;;;;;;22.42;12.32;;;;;;;;;;4936355;29;20202;-76
2021/11/23 08:12:18;;;;;;;17.42;11.35;;;;;;;;;;4933527;29;20222;-76
2021/11/23 08:14:46;;;;;;;17.63;11.40;;;;;;;;;;4940410;29;20564;-77
2021/11/23 08:17:13;;;;;;;19.83;12.93;;;;;;;;;;4950384;28;20214;-74
2021/11/23 08:19:40;;;;;;;19.60;12.82;;;;;;;;;;4962190;28;20195;-74
2021/11/23 08:22:09;;;;;;;19.73;11.65;;;;;;;;;;4934852;29;20206;-74
2021/11/23 08:24:36;;;;;;;15.55;12.05;;;;;;;;;;4934448;29;20198;-74
2021/11/23 08:27:03;;;;;;;18.77;11.63;;;;;;;;;;4934702;29;20214;-75
2021/11/23 08:29:30;;;;;;;17.65;11.05;;;;;;;;;;4938593;28;20198;-75
2021/11/23 08:31:57;;;;;;;21.63;11.90;;;;;;;;;;4936417;28;20233;-75
2021/11/23 08:34:27;;;;;;;20.83;12.70;;;;;;;;;;4932758;29;20203;-75
2021/11/23 08:36:55;;;;;;;22.08;12.90;;;;;;;;;;4932785;29;20219;-75
2021/11/23 08:39:23;;;;;;;18.95;12.70;;;;;;;;;;4934024;29;20202;-75
2021/11/23 08:41:51;;;;;;;18.65;12.48;;;;;;;;;;4934066;29;20297;-74
2021/11/23 08:44:18;;;;;;;21.17;12.57;;;;;;;;;;4939192;28;20191;-75
2021/11/23 08:46:46;;;;;;;19.25;13.23;;;;;;;;;;4945234;28;20220;-75
2021/11/23 08:49:14;;;;;;;17.73;11.82;;;;;;;;;;4952304;28;20652;-76
2021/11/23 08:51:42;;;;;;;22.13;12.75;;;;;;;;;;4947473;28;20199;-76
2021/11/23 08:54:12;;;;;;;18.42;12.55;;;;;;;;;;4933649;29;20715;-75
2021/11/23 08:56:44;;;;;;;19.85;12.98;;;;;;;;;;4934437;28;20229;-75
2021/11/23 08:59:13;;;;;;;17.17;11.95;;;;;;;;;;4939292;29;20205;-74
2021/11/23 09:01:41;;;;;;;20.13;12.07;;;;;;;;;;4936920;28;20203;-75
2021/11/23 09:04:08;;;;;;;20.15;12.20;;;;;;;;;;4934419;29;20619;-74
2021/11/23 09:06:39;;;;;;;18.30;10.80;;;;;;;;;;4932413;29;20214;-74
2021/11/23 09:09:08;;;;;;;17.90;11.50;;;;;;;;;;4933607;29;20202;-75
2021/11/23 09:11:35;;;;;;;19.42;12.65;;;;;;;;;;4932295;29;20203;-74
2021/11/23 09:14:04;;;;;;;18.08;13.20;;;;;;;;;;4940203;28;20222;-74
2021/11/23 09:16:33;;;;;;;15.57;11.50;;;;;;;;;;4933649;28;20214;-74
2021/11/23 09:19:01;;;;;;;18.50;12.70;;;;;;;;;;4933621;29;20596;-74
2021/11/23 09:21:28;;;;;;;20.90;12.38;;;;;;;;;;4933426;29;20199;-74
2021/11/23 09:23:56;;;;;;;16.83;12.45;;;;;;;;;;4930804;29;20234;-74
2021/11/23 09:26:24;;;;;;;16.25;11.45;;;;;;;;;;4929782;29;20203;-75
2021/11/23 09:28:51;;;;;;;21.85;12.10;;;;;;;;;;4937022;29;20319;-74
2021/11/23 09:31:20;;;;;;;16.67;12.68;;;;;;;;;;4938234;29;20646;-74
2021/11/23 09:33:47;;;;;;;18.25;12.13;;;;;;;;;;4948516;28;20219;-74
2021/11/23 09:36:15;;;;;;;18.35;12.68;;;;;;;;;;4931759;29;20207;-74
2021/11/23 09:38:42;;;;;;;19.63;11.88;;;;;;;;;;4932334;29;20190;-74
2021/11/23 09:41:09;;;;;;;17.45;12.13;;;;;;;;;;4931673;29;20198;-75
2021/11/23 09:43:38;;;;;;;18.95;12.80;;;;;;;;;;4927907;29;20602;-74
2021/11/23 09:46:07;;;;;;;18.60;12.40;;;;;;;;;;4934910;29;20209;-75
2021/11/23 09:48:36;;;;;;;19.00;12.65;;;;;;;;;;4933826;29;20722;-75
2021/11/23 09:51:05;;;;;;;20.35;13.48;;;;;;;;;;4935994;29;20204;-77
2021/11/23 09:53:32;;;;;;;21.65;12.35;;;;;;;;;;4938683;28;20313;-75
2021/11/23 09:55:59;;;;;;;18.58;10.88;;;;;;;;;;4949949;29;20195;-75
2021/11/23 09:58:29;;;;;;;18.83;11.68;;;;;;;;;;4941201;28;20227;-76
2021/11/23 10:01:02;;;;;;;20.70;12.32;;;;;;;;;;4932979;29;20203;-75
2021/11/23 10:03:30;;;;;;;21.00;12.68;;;;;;;;;;4931500;29;20199;-75
2021/11/23 10:06:07;;;;;;;18.92;12.60;;;;;;;;;;4932541;29;20213;-75
2021/11/23 10:08:34;;;;;;;20.13;13.05;;;;;;;;;;4932604;29;20714;-75
2021/11/23 10:11:01;;;;;;;18.30;12.45;;;;;;;;;;4935332;29;20205;-75
2021/11/23 10:13:40;;;;;;;15.60;11.52;;;;;;;;;;4937640;28;20226;-75
2021/11/23 10:16:07;;;;;;;16.17;12.30;;;;;;;;;;4937629;29;20198;-76
2021/11/23 10:18:36;;;;;;;20.77;12.35;;;;;;;;;;4928652;29;21394;-76
2021/11/23 10:21:03;;;;;;;15.30;10.38;;;;;;;;;;4932375;29;20201;-75
2021/11/23 10:23:33;;;;;;;23.27;13.30;;;;;;;;;;4931206;29;20198;-75
2021/11/23 10:26:04;;;;;;;15.52;11.68;;;;;;;;;;4931942;29;20195;-75
2021/11/23 10:28:31;;;;;;;19.60;13.05;;;;;;;;;;4925322;29;20574;-75
2021/11/23 10:30:59;;;;;;;24.85;12.63;;;;;;;;;;4936916;28;20266;-75
2021/11/23 10:33:27;;;;;;;20.48;12.82;;;;;;;;;;4949759;28;20581;-76
2021/11/23 10:35:56;;;;;;;18.55;13.00;;;;;;;;;;4960376;28;20199;-76
2021/11/23 10:38:24;;;;;;;19.92;11.82;;;;;;;;;;4926060;29;20211;-77
2021/11/23 10:40:53;;;;;;;19.23;12.55;;;;;;;;;;4929267;29;20198;-75
2021/11/23 10:43:21;;;;;;;17.02;11.20;;;;;;;;;;4933399;29;20209;-75
2021/11/23 10:45:50;;;;;;;17.10;12.05;;;;;;;;;;4952316;28;20198;-75
2021/11/23 10:48:19;;;;;;;18.25;12.05;;;;;;;;;;4958542;28;20218;-74
2021/11/23 10:50:57;;;;;;;22.30;12.40;;;;;;;;;;4950733;29;20202;-75
2021/11/23 10:53:25;;;;;;;16.95;12.43;;;;;;;;;;4952857;28;20717;-74
2021/11/23 10:55:54;;;;;;;16.80;12.50;;;;;;;;;;4905905;29;20214;-75
2021/11/23 10:58:21;;;;;;;16.42;12.38;;;;;;;;;;4924605;29;20616;-74
2021/11/23 11:00:50;;;;;;;16.65;11.85;;;;;;;;;;4937026;29;20191;-75
2021/11/23 11:03:19;;;;;;;18.50;12.30;;;;;;;;;;4933034;29;20222;-75
2021/11/23 11:05:46;;;;;;;18.95;13.68;;;;;;;;;;4930518;29;20230;-76
2021/11/23 11:08:15;;;;;;;17.58;12.30;;;;;;;;;;4930446;29;20211;-76
2021/11/23 11:10:42;;;;;;;16.63;10.85;;;;;;;;;;4931564;29;20640;-76
2021/11/23 11:13:12;;;;;;;18.33;11.68;;;;;;;;;;4931248;28;20293;-75
2021/11/23 11:15:41;;;;;;;14.75;11.38;;;;;;;;;;4937853;28;20274;-75
2021/11/23 11:18:09;;;;;;;15.63;11.90;;;;;;;;;;4946851;28;20820;-75
2021/11/23 11:20:39;;;;;;;18.38;12.95;;;;;;;;;;4964251;28;20201;-75
2021/11/23 11:23:07;;;;;;;18.48;13.35;;;;;;;;;;4946528;28;20202;-75
2021/11/23 11:25:50;;;;;;;16.17;12.93;;;;;;;;;;4927226;29;20207;-76
2021/11/23 11:28:36;;;;;;;18.10;13.27;;;;;;;;;;4933382;29;20226;-75
2021/11/23 11:31:06;;;;;;;23.65;13.68;;;;;;;;;;4952597;28;20261;-75
2021/11/23 11:33:34;;;;;;;17.77;13.05;;;;;;;;;;4928213;29;20341;-75
2021/11/23 11:36:02;;;;;;;18.27;11.90;;;;;;;;;;4932060;29;20603;-75
2021/11/23 11:38:39;;;;;;;16.90;12.00;;;;;;;;;;4931394;29;20219;-76
2021/11/23 11:41:07;;;;;;;20.27;12.38;;;;;;;;;;4929853;29;20254;-75
2021/11/23 11:43:36;;;;;;;18.92;12.75;;;;;;;;;;4932609;29;20206;-75
2021/11/23 11:46:05;;;;;;;15.32;12.27;;;;;;;;;;4932785;29;20202;-76
2021/11/23 11:48:44;;;;;;;15.32;12.73;;;;;;;;;;4933170;29;20211;-76
2021/11/23 11:51:18;;;;;;;20.38;13.07;;;;;;;;;;4935873;29;20186;-75
2021/11/23 11:53:46;;;;;;;22.08;14.00;;;;;;;;;;4939477;28;20228;-76
2021/11/23 11:56:14;;;;;;;21.75;14.38;;;;;;;;;;4965268;28;20202;-74
2021/11/23 11:58:51;;;;;;;18.45;12.68;;;;;;;;;;4931921;28;20716;-76
2021/11/23 12:01:23;;;;;;;17.70;12.27;;;;;;;;;;4926414;29;20230;-75
2021/11/23 12:04:01;;;;;;;23.98;12.55;;;;;;;;;;4922706;29;20971;-77
2021/11/23 12:06:43;;;;;;;19.38;13.15;;;;;;;;;;4912242;29;20203;-75
2021/11/23 12:09:25;;;;;;;20.80;13.00;;;;;;;;;;4927062;29;20206;-75
2021/11/23 12:11:52;;;;;;;20.87;13.33;;;;;;;;;;4930377;29;20205;-76
2021/11/23 12:14:21;;;;;;;18.63;12.73;;;;;;;;;;4932214;29;20835;-76
2021/11/23 12:16:53;;;;;;;19.17;12.67;;;;;;;;;;4941913;28;20466;-75
2021/11/23 12:19:29;;;;;;;18.03;11.53;;;;;;;;;;4945514;29;20810;-76
2021/11/23 12:22:00;;;;;;;21.23;12.83;;;;;;;;;;4909330;29;20538;-74
2021/11/23 12:24:28;;;;;;;18.75;12.95;;;;;;;;;;4914484;29;20477;-76
2021/11/23 12:26:56;;;;;;;14.70;10.43;;;;;;;;;;4934280;28;20246;-74
2021/11/23 12:29:29;;;;;;;18.10;11.23;;;;;;;;;;4940156;28;20423;-75
2021/11/23 12:31:58;;;;;;;20.50;13.20;;;;;;;;;;4951306;28;20201;-75
2021/11/23 12:34:26;;;;;;;21.63;13.17;;;;;;;;;;4951601;28;21014;-75
2021/11/23 12:36:55;;;;;;;17.70;12.23;;;;;;;;;;4932317;29;20571;-74
2021/11/23 12:39:24;;;;;;;15.97;11.70;;;;;;;;;;4912666;29;20538;-74
2021/11/23 12:41:59;;;;;;;17.60;12.57;;;;;;;;;;4930126;28;20488;-74
2021/11/23 12:44:32;;;;;;;18.03;11.67;;;;;;;;;;4936999;29;20466;-75
2021/11/23 12:47:01;;;;;;;18.37;11.93;;;;;;;;;;4947912;28;20466;-73
2021/11/23 12:49:32;;;;;;;14.77;10.80;;;;;;;;;;4932909;29;20457;-75
2021/11/23 12:52:01;;;;;;;16.70;11.43;;;;;;;;;;4933020;29;20446;-77
2021/11/23 12:54:29;;;;;;;22.43;11.17;;;;;;;;;;4932350;29;20490;-86
2021/11/23 12:57:03;;;;;;;18.03;12.00;;;;;;;;;;4950085;28;20522;-82
2021/11/23 12:59:35;;;;;;;17.83;11.47;;;;;;;;;;4953824;28;20529;-83
2021/11/23 13:02:22;;;;;;;19.60;12.23;;;;;;;;;;4936551;29;20441;-81
2021/11/23 13:04:50;;;;;;;14.97;10.40;;;;;;;;;;4933166;29;20904;-78
2021/11/23 13:07:17;;;;;;;20.97;11.93;;;;;;;;;;4931997;29;20975;-81
2021/11/23 13:09:45;;;;;;;18.53;10.60;;;;;;;;;;4932787;29;20469;-82
2021/11/23 13:12:12;;;;;;;24.90;11.80;;;;;;;;;;4934977;29;20810;-81
2021/11/23 13:14:50;;;;;;;20.80;11.90;;;;;;;;;;4943736;29;20485;-80
2021/11/23 13:17:19;;;;;;;20.43;11.00;;;;;;;;;;4941988;29;20537;-81
2021/11/23 13:19:53;;;;;;;19.30;11.47;;;;;;;;;;4937251;28;20460;-79
2021/11/23 13:22:21;;;;;;;18.40;11.90;;;;;;;;;;4938151;28;20928;-77
2021/11/23 13:24:48;;;;;;;17.50;12.00;;;;;;;;;;4946347;28;20453;-79
2021/11/23 13:27:15;;;;;;;19.13;11.73;;;;;;;;;;4946714;28;20454;-78
2021/11/23 13:29:45;;;;;;;20.23;11.20;;;;;;;;;;4944577;29;20457;-80
2021/11/23 13:32:13;;;;;;;16.37;11.20;;;;;;;;;;4934067;29;20435;-78
2021/11/23 13:34:41;;;;;;;17.53;10.30;;;;;;;;;;4933243;29;20853;-81
2021/11/23 13:37:08;;;;;;;19.43;10.60;;;;;;;;;;4932557;29;21083;-80
2021/11/23 13:39:37;;;;;;;18.60;10.57;;;;;;;;;;4934163;29;20458;-79
2021/11/23 13:42:04;;;;;;;18.63;11.03;;;;;;;;;;4932773;28;20568;-76
2021/11/23 13:44:32;;;;;;;18.13;9.97;;;;;;;;;;4938237;29;20442;-79
2021/11/23 13:47:01;;;;;;;15.40;10.73;;;;;;;;;;4942513;28;20851;-79
2021/11/23 13:49:31;;;;;;;18.67;10.53;;;;;;;;;;4931442;29;20998;-79
2021/11/23 13:52:13;;;;;;;21.35;12.52;;;;;;;;;;4931667;29;20493;-80
2021/11/23 13:54:43;;;;;;;30.97;13.30;;;;;;;;;;4932192;29;20228;-78
2021/11/23 13:57:14;;;;;;;25.60;13.23;;;;;;;;;;4933211;29;20466;-79
2021/11/23 13:59:51;;;;;;;20.77;13.47;;;;;;;;;;4936449;28;20462;-80
2021/11/23 14:02:19;;;;;;;24.23;14.73;;;;;;;;;;4945049;28;20438;-79
2021/11/23 14:04:47;;;;;;;19.30;13.53;;;;;;;;;;4942592;28;20435;-78
2021/11/23 14:07:16;;;;;;;22.63;13.43;;;;;;;;;;4932910;29;20481;-77
2021/11/23 14:09:49;;;;;;;25.80;13.43;;;;;;;;;;4932131;29;20478;-77
2021/11/23 14:12:18;;;;;;;23.47;14.10;;;;;;;;;;4943888;28;21218;-79
2021/11/23 14:15:01;;;;;;;20.80;14.80;;;;;;;;;;4938844;29;21037;-77
2021/11/23 14:17:43;;;;;;;25.20;15.20;;;;;;;;;;4957810;28;20464;-77
2021/11/23 14:20:10;;;;;;;21.15;12.82;;;;;;;;;;4944252;28;20455;-79
2021/11/23 14:22:41;;;;;;;21.90;13.80;;;;;;;;;;4932313;29;20297;-78
2021/11/23 14:25:19;;;;;;;20.63;14.23;;;;;;;;;;4939278;29;20475;-77